createdAt,value
2022-11-15T00:00:48.091Z,55.33
2022-11-15T00:03:33.949Z,54.31
2022-11-15T00:06:19.625Z,54.25
2022-11-15T00:09:05.107Z,54.45
2022-11-15T00:11:50.164Z,53.70
2022-11-15T00:14:35.518Z,54.44
2022-11-15T00:17:21.007Z,54.08
2022-11-15T00:20:06.825Z,53.59
2022-11-15T00:22:52.165Z,54.11
2022-11-15T00:25:37.515Z,53.11
2022-11-15T00:28:22.913Z,52.17
2022-11-15T00:31:12.433Z,53.56
2022-11-15T00:33:57.909Z,53.38
2022-11-15T00:36:43.203Z,52.98
2022-11-15T00:39:28.727Z,54.05
2022-11-15T00:42:14.312Z,54.12
2022-11-15T00:44:59.605Z,53.29
2022-11-15T00:47:47.360Z,52.13
2022-11-15T00:50:33.115Z,53.29
2022-11-15T00:53:18.904Z,53.11
2022-11-15T00:56:04.879Z,53.42
2022-11-15T00:58:50.452Z,52.45
2022-11-15T01:01:36.001Z,52.50
2022-11-15T01:04:20.957Z,52.20
2022-11-15T01:07:06.612Z,51.57
2022-11-15T01:09:52.063Z,51.84
2022-11-15T01:12:37.917Z,52.46
2022-11-15T01:15:23.096Z,53.74
2022-11-15T01:18:08.846Z,54.41
2022-11-15T01:20:54.405Z,52.58
2022-11-15T01:23:40.727Z,53.13
2022-11-15T01:26:26.619Z,53.61
2022-11-15T01:29:12.035Z,54.59
2022-11-15T01:31:57.599Z,54.23
2022-11-15T01:34:42.994Z,53.11
2022-11-15T01:37:28.368Z,52.42
2022-11-15T01:40:13.957Z,51.51
2022-11-15T01:42:59.520Z,51.71
2022-11-15T01:45:46.660Z,53.21
2022-11-15T01:48:35.076Z,53.45
2022-11-15T01:51:23.153Z,53.05
2022-11-15T01:54:13.587Z,54.10
2022-11-15T01:57:04.622Z,53.28
2022-11-15T01:59:50.055Z,52.02
2022-11-15T02:02:38.195Z,52.37
2022-11-15T02:05:23.781Z,52.18
2022-11-15T02:08:21.114Z,51.12
2022-11-15T02:11:10.318Z,50.55
2022-11-15T02:13:57.931Z,50.09
2022-11-15T02:17:01.226Z,51.58
2022-11-15T02:20:21.009Z,51.49
2022-11-15T02:23:49.355Z,49.38
2022-11-15T02:26:50.083Z,49.05
2022-11-15T02:30:05.041Z,49.31
2022-11-15T02:33:04.277Z,49.23
2022-11-15T02:35:49.909Z,48.63
2022-11-15T02:38:38.238Z,48.14
2022-11-15T02:41:39.287Z,48.09
2022-11-15T02:44:36.390Z,49.53
2022-11-15T02:47:23.502Z,48.96
2022-11-15T02:50:13.445Z,49.60
2022-11-15T02:52:59.119Z,48.30
2022-11-15T02:55:52.253Z,48.42
2022-11-15T02:58:57.581Z,48.30
2022-11-15T03:02:02.039Z,48.63
2022-11-15T03:04:50.677Z,48.96
2022-11-15T03:07:58.183Z,49.15
2022-11-15T03:11:08.344Z,47.84
2022-11-15T03:14:09.007Z,47.93
2022-11-15T03:17:15.219Z,46.95
2022-11-15T03:20:05.127Z,47.37
2022-11-15T03:22:52.250Z,47.42
2022-11-15T03:25:44.869Z,47.29
2022-11-15T03:28:56.733Z,47.42
2022-11-15T03:31:50.895Z,47.59
2022-11-15T03:34:51.058Z,47.13
2022-11-15T03:37:39.254Z,45.83
2022-11-15T03:40:37.520Z,49.46
2022-11-15T03:43:44.245Z,50.16
2022-11-15T03:46:48.908Z,50.62
2022-11-15T03:49:36.630Z,48.14
2022-11-15T03:52:23.414Z,48.69
2022-11-15T03:55:14.073Z,46.09
2022-11-15T03:58:01.331Z,47.61
2022-11-15T04:00:47.081Z,47.31
2022-11-15T04:03:32.695Z,46.13
2022-11-15T04:06:18.531Z,46.69
2022-11-15T04:09:04.372Z,46.87
2022-11-15T04:11:50.004Z,46.64
2022-11-15T04:14:35.574Z,47.41
2022-11-15T04:17:21.000Z,46.75
2022-11-15T04:20:36.917Z,46.35
2022-11-15T04:23:42.677Z,47.95
2022-11-15T04:26:28.252Z,48.21
2022-11-15T04:29:32.122Z,49.28
2022-11-15T04:32:17.730Z,50.09
2022-11-15T04:35:03.322Z,49.36
2022-11-15T04:37:49.592Z,50.75
2022-11-15T04:40:35.649Z,49.38
2022-11-15T04:43:21.301Z,49.13
2022-11-15T04:46:06.796Z,48.36
2022-11-15T04:48:58.284Z,48.08
2022-11-15T04:51:44.393Z,48.31
2022-11-15T04:54:30.270Z,46.76
2022-11-15T04:57:15.967Z,46.67
2022-11-15T05:00:01.171Z,48.36
2022-11-15T05:03:05.223Z,48.70
2022-11-15T05:05:50.893Z,48.56
2022-11-15T05:08:36.369Z,48.87
2022-11-15T05:11:22.859Z,49.43
2022-11-15T05:14:08.447Z,48.86
2022-11-15T05:16:54.021Z,46.23
2022-11-15T05:19:39.599Z,47.29
2022-11-15T05:22:25.179Z,48.28
2022-11-15T05:25:10.806Z,48.91
2022-11-15T05:27:56.498Z,48.47
2022-11-15T05:30:42.094Z,47.26
2022-11-15T05:33:27.693Z,48.50
2022-11-15T05:36:13.718Z,48.14
2022-11-15T05:38:59.156Z,48.38
2022-11-15T05:41:47.120Z,48.27
2022-11-15T05:44:33.165Z,49.63
2022-11-15T05:47:23.706Z,51.23
2022-11-15T05:50:15.479Z,51.50
2022-11-15T05:53:05.291Z,50.58
2022-11-15T05:55:51.032Z,50.10
2022-11-15T05:58:37.737Z,50.04
2022-11-15T06:01:25.851Z,50.52
2022-11-15T06:04:11.173Z,51.02
2022-11-15T06:06:56.995Z,51.30
2022-11-15T06:09:42.879Z,50.85
2022-11-15T06:12:28.408Z,51.41
2022-11-15T06:15:13.741Z,51.58
2022-11-15T06:18:00.255Z,51.92
2022-11-15T06:20:45.528Z,51.58
2022-11-15T06:23:35.856Z,52.09
2022-11-15T06:26:21.418Z,52.54
2022-11-15T06:29:07.011Z,52.43
2022-11-15T06:31:52.462Z,52.98
2022-11-15T06:34:37.985Z,53.45
2022-11-15T06:37:23.394Z,52.96
2022-11-15T06:40:10.655Z,52.72
2022-11-15T06:43:00.528Z,53.48
2022-11-15T06:45:46.308Z,53.93
2022-11-15T06:48:33.184Z,53.19
2022-11-15T06:51:18.725Z,51.66
2022-11-15T06:54:04.198Z,52.13
2022-11-15T06:56:49.902Z,52.99
2022-11-15T06:59:40.283Z,55.13
2022-11-15T07:02:26.485Z,55.93
2022-11-15T07:05:12.651Z,56.47
2022-11-15T07:07:59.649Z,56.38
2022-11-15T07:10:45.299Z,56.53
2022-11-15T07:13:36.399Z,57.58
2022-11-15T07:16:22.229Z,53.83
2022-11-15T07:19:09.478Z,55.43
2022-11-15T07:21:54.846Z,53.69
2022-11-15T07:24:40.376Z,52.49
2022-11-15T07:27:25.749Z,53.72
2022-11-15T07:30:15.313Z,54.93
2022-11-15T07:33:01.885Z,54.55
2022-11-15T07:35:50.072Z,55.26
2022-11-15T07:38:42.549Z,52.16
2022-11-15T07:41:27.967Z,52.81
2022-11-15T07:44:13.540Z,51.40
2022-11-15T07:46:59.267Z,50.51
2022-11-15T07:49:45.002Z,52.31
2022-11-15T07:52:30.752Z,53.19
2022-11-15T07:55:16.083Z,52.87
2022-11-15T07:58:05.945Z,51.33
2022-11-15T08:00:51.371Z,50.52
2022-11-15T08:03:37.224Z,48.61
2022-11-15T08:06:22.660Z,46.76
2022-11-15T08:09:08.216Z,46.07
2022-11-15T08:11:53.846Z,45.46
2022-11-15T08:14:39.643Z,45.09
2022-11-15T08:17:25.420Z,43.55
2022-11-15T08:20:11.484Z,42.27
2022-11-15T08:23:01.921Z,42.04
2022-11-15T08:25:47.854Z,41.34
2022-11-15T08:28:33.881Z,41.40
2022-11-15T08:31:20.022Z,40.38
2022-11-15T08:34:06.806Z,39.95
2022-11-15T08:36:52.192Z,39.51
2022-11-15T08:39:39.019Z,39.05
2022-11-15T08:42:24.252Z,39.36
2022-11-15T08:45:10.577Z,40.04
2022-11-15T08:47:57.005Z,39.94
2022-11-15T08:50:44.734Z,39.96
2022-11-15T08:53:30.433Z,40.70
2022-11-15T08:56:16.717Z,40.40
2022-11-15T08:59:02.410Z,40.68
2022-11-15T09:01:47.929Z,40.35
2022-11-15T09:04:33.628Z,40.65
2022-11-15T09:07:19.338Z,41.38
2022-11-15T09:10:05.356Z,42.12
2022-11-15T09:12:51.074Z,42.19
2022-11-15T09:15:36.474Z,41.78
2022-11-15T09:18:23.490Z,43.15
2022-11-15T09:21:09.727Z,43.12
2022-11-15T09:23:55.479Z,41.13
2022-11-15T09:29:41.344Z,41.93
2022-11-15T09:32:36.259Z,40.51
2022-11-15T09:35:24.493Z,38.90
2022-11-15T09:38:09.990Z,39.40
2022-11-15T09:41:12.898Z,39.03
2022-11-15T09:44:26.069Z,39.29
2022-11-15T09:47:36.729Z,39.94
2022-11-15T09:50:47.912Z,38.88
2022-11-15T09:53:50.727Z,38.77
2022-11-15T09:56:27.036Z,39.15
2022-11-15T09:59:15.612Z,38.81
2022-11-15T10:02:19.818Z,39.49
2022-11-15T10:04:47.155Z,40.20
2022-11-15T10:07:42.828Z,40.26
2022-11-15T10:10:09.600Z,39.85
2022-11-15T10:12:36.594Z,40.08
2022-11-15T10:15:11.623Z,40.33
2022-11-15T10:17:55.236Z,40.10
2022-11-15T10:20:26.312Z,39.51
2022-11-15T10:23:01.204Z,39.11
2022-11-15T10:25:29.703Z,39.95
2022-11-15T10:28:02.221Z,39.93
2022-11-15T10:30:37.008Z,39.47
2022-11-15T10:33:16.557Z,37.08
2022-11-15T10:35:43.750Z,36.80
2022-11-15T10:38:12.633Z,37.12
2022-11-15T10:43:27.365Z,37.57
2022-11-15T10:45:54.406Z,37.82
2022-11-15T10:48:24.333Z,36.77
2022-11-15T10:50:53.242Z,37.38
2022-11-15T10:53:25.144Z,37.57
2022-11-15T10:55:56.305Z,32.58
2022-11-15T10:58:41.272Z,34.74
2022-11-15T11:01:12.565Z,31.69
2022-11-15T11:03:41.799Z,30.43
2022-11-15T11:06:12.439Z,35.43
2022-11-15T11:08:39.914Z,36.33
2022-11-15T11:11:08.705Z,36.08
2022-11-15T11:13:40.627Z,36.71
2022-11-15T11:16:22.988Z,37.55
2022-11-15T11:18:55.678Z,37.29
2022-11-15T11:21:39.594Z,36.53
2022-11-15T11:24:33.270Z,37.24
2022-11-15T11:27:13.728Z,36.97
2022-11-15T11:29:49.582Z,35.62
2022-11-15T11:32:44.253Z,36.38
2022-11-15T11:35:21.142Z,35.76
2022-11-15T11:37:55.978Z,35.00
2022-11-15T11:40:44.475Z,35.85
2022-11-15T11:43:30.251Z,34.86
2022-11-15T11:46:32.011Z,34.69
2022-11-15T11:49:23.027Z,34.17
2022-11-15T11:51:56.982Z,34.26
2022-11-15T11:54:41.449Z,33.61
2022-11-15T11:57:23.532Z,34.38
2022-11-15T12:00:21.335Z,33.75
2022-11-15T12:03:19.518Z,33.67
2022-11-15T12:05:55.577Z,33.55
2022-11-15T12:08:40.136Z,33.99
2022-11-15T12:11:24.287Z,32.91
2022-11-15T12:13:59.384Z,31.88
2022-11-15T12:16:34.447Z,32.88
2022-11-15T12:19:03.647Z,32.89
2022-11-15T12:21:40.888Z,30.19
2022-11-15T12:24:26.454Z,28.72
2022-11-15T12:27:00.231Z,30.88
2022-11-15T12:29:30.332Z,28.34
2022-11-15T12:32:00.981Z,26.77
2022-11-15T12:34:43.060Z,27.63
2022-11-15T12:37:41.736Z,29.63
2022-11-15T12:40:19.476Z,27.21
2022-11-15T12:43:02.584Z,28.80
2022-11-15T12:45:29.589Z,28.24
2022-11-15T12:48:19.562Z,28.55
2022-11-15T12:50:55.380Z,29.78
2022-11-15T12:53:25.531Z,29.81
2022-11-15T12:56:21.299Z,32.85
2022-11-15T12:58:51.161Z,33.61
2022-11-15T13:01:44.485Z,34.72
2022-11-15T13:04:14.413Z,34.40
2022-11-15T13:06:47.852Z,34.13
2022-11-15T13:09:30.232Z,35.28
2022-11-15T13:11:58.880Z,35.21
2022-11-15T13:14:38.003Z,34.94
2022-11-15T13:17:20.166Z,34.16
2022-11-15T13:19:49.819Z,35.77
2022-11-15T13:22:35.573Z,35.95
2022-11-15T13:25:02.901Z,35.96
2022-11-15T13:27:30.127Z,35.61
2022-11-15T13:29:57.066Z,35.57
2022-11-15T13:32:24.275Z,35.82
2022-11-15T13:34:53.934Z,36.04
2022-11-15T13:37:20.859Z,36.51
2022-11-15T13:39:51.329Z,36.67
2022-11-15T13:42:20.256Z,37.11
2022-11-15T13:44:59.741Z,37.06
2022-11-15T13:47:29.050Z,37.00
2022-11-15T13:49:59.043Z,37.51
2022-11-15T13:52:34.079Z,38.54
2022-11-15T13:55:09.224Z,38.76
2022-11-15T13:57:38.914Z,38.60
2022-11-15T14:00:23.699Z,39.32
2022-11-15T14:02:51.115Z,40.31
2022-11-15T14:05:24.760Z,39.81
2022-11-15T14:08:14.639Z,39.99
2022-11-15T14:10:41.541Z,39.12
2022-11-15T14:13:32.409Z,36.77
2022-11-15T14:16:20.946Z,37.24
2022-11-15T14:18:49.344Z,37.33
2022-11-15T14:21:19.153Z,37.63
2022-11-15T14:23:46.795Z,38.11
2022-11-15T14:26:36.274Z,38.02
2022-11-15T14:29:28.109Z,37.73
2022-11-15T14:32:08.072Z,39.01
2022-11-15T14:34:35.005Z,39.18
2022-11-15T14:37:01.836Z,39.10
2022-11-15T14:39:29.143Z,39.15
2022-11-15T14:41:56.031Z,39.19
2022-11-15T14:44:23.225Z,36.70
2022-11-15T14:46:50.087Z,38.18
2022-11-15T14:49:17.412Z,39.23
2022-11-15T14:51:44.418Z,40.76
2022-11-15T14:54:11.889Z,39.82
2022-11-15T14:56:38.760Z,40.24
2022-11-15T14:59:05.747Z,40.37
2022-11-15T15:01:33.192Z,40.80
2022-11-15T15:04:00.567Z,41.34
2022-11-15T15:06:27.810Z,41.40
2022-11-15T15:08:54.917Z,41.68
2022-11-15T15:11:25.067Z,41.12
2022-11-15T15:13:53.211Z,41.75
2022-11-15T15:16:20.864Z,40.26
2022-11-15T15:18:47.821Z,39.67
2022-11-15T15:21:20.809Z,39.03
2022-11-15T15:23:47.908Z,39.86
2022-11-15T15:26:14.908Z,40.77
2022-11-15T15:28:42.195Z,41.39
2022-11-15T15:31:10.872Z,41.49
2022-11-15T15:33:38.520Z,40.92
2022-11-15T15:36:06.322Z,41.53
2022-11-15T15:38:33.565Z,42.08
2022-11-15T15:41:02.982Z,42.19
2022-11-15T15:43:30.025Z,42.38
2022-11-15T15:45:56.924Z,42.74
2022-11-15T15:48:23.869Z,42.94
2022-11-15T15:50:50.861Z,42.66
2022-11-15T15:53:18.487Z,43.62
2022-11-15T15:55:45.400Z,43.51
2022-11-15T15:58:12.286Z,43.86
2022-11-15T16:00:39.923Z,43.32
2022-11-15T16:03:06.950Z,43.83
2022-11-15T16:05:34.018Z,43.94
2022-11-15T16:08:01.071Z,43.94
2022-11-15T16:10:30.687Z,44.28
2022-11-15T16:12:58.784Z,44.52
2022-11-15T16:15:29.323Z,44.87
2022-11-15T16:18:01.075Z,45.11
2022-11-15T16:20:50.593Z,45.15
2022-11-15T16:23:21.081Z,45.77
2022-11-15T16:25:54.356Z,46.86
2022-11-15T16:28:33.459Z,46.61
2022-11-15T16:31:04.202Z,46.01
2022-11-15T16:33:31.600Z,47.19
2022-11-15T16:35:58.931Z,47.64
2022-11-15T16:38:26.242Z,47.84
2022-11-15T16:40:53.277Z,48.13
2022-11-15T16:43:20.281Z,48.05
2022-11-15T16:45:47.348Z,48.35
2022-11-15T16:48:26.213Z,48.44
2022-11-15T16:50:57.539Z,48.26
2022-11-15T16:53:25.948Z,48.38
2022-11-15T16:55:53.262Z,47.45
2022-11-15T16:58:22.073Z,47.54
2022-11-15T17:00:57.145Z,48.47
2022-11-15T17:03:25.081Z,48.90
2022-11-15T17:05:52.255Z,48.98
2022-11-15T17:08:21.935Z,49.23
2022-11-15T17:10:49.105Z,49.01
2022-11-15T17:13:16.143Z,48.29
2022-11-15T17:15:43.514Z,48.27
2022-11-15T17:18:15.583Z,48.69
2022-11-15T17:20:43.550Z,49.12
2022-11-15T17:23:15.054Z,49.06
2022-11-15T17:25:42.405Z,49.28
2022-11-15T17:28:10.207Z,49.57
2022-11-15T17:30:37.110Z,50.07
2022-11-15T17:33:05.268Z,50.14
2022-11-15T17:35:32.212Z,51.27
2022-11-15T17:37:59.090Z,51.89
2022-11-15T17:40:26.047Z,51.65
2022-11-15T17:42:53.463Z,51.48
2022-11-15T17:45:20.343Z,51.50
2022-11-15T17:47:47.230Z,51.45
2022-11-15T17:50:14.646Z,51.61
2022-11-15T17:52:41.576Z,51.90
2022-11-15T17:55:08.863Z,51.85
2022-11-15T17:57:35.786Z,51.77
2022-11-15T18:00:03.117Z,51.67
2022-11-15T18:02:30.911Z,51.76
2022-11-15T18:04:57.873Z,51.70
2022-11-15T18:07:24.909Z,51.72
2022-11-15T18:09:51.875Z,51.69
2022-11-15T18:12:19.848Z,51.66
2022-11-15T18:14:46.809Z,52.07
2022-11-15T18:17:13.705Z,52.00
2022-11-15T18:19:40.675Z,52.13
2022-11-15T18:22:10.015Z,52.13
2022-11-15T18:24:38.736Z,51.78
2022-11-15T18:27:06.772Z,52.30
2022-11-15T18:29:35.640Z,51.98
2022-11-15T18:32:05.158Z,52.62
2022-11-15T18:34:34.090Z,52.44
2022-11-15T18:37:02.893Z,52.66
2022-11-15T18:39:30.437Z,52.45
2022-11-15T18:41:58.256Z,52.71
2022-11-15T18:44:25.473Z,52.96
2022-11-15T18:46:52.432Z,52.68
2022-11-15T18:49:20.510Z,52.15
2022-11-15T18:51:47.906Z,52.30
2022-11-15T18:54:16.323Z,52.86
2022-11-15T18:56:47.170Z,53.16
2022-11-15T18:59:15.410Z,53.11
2022-11-15T19:01:48.851Z,51.97
2022-11-15T19:04:18.777Z,53.56
2022-11-15T19:06:47.710Z,53.80
2022-11-15T19:09:16.552Z,53.85
2022-11-15T19:11:46.492Z,53.61
2022-11-15T19:14:16.571Z,53.14
2022-11-15T19:16:46.364Z,53.93
2022-11-15T19:19:15.798Z,54.73
2022-11-15T19:21:43.482Z,54.66
2022-11-15T19:24:13.631Z,54.58
2022-11-15T19:26:40.888Z,54.37
2022-11-15T19:29:12.335Z,54.95
2022-11-15T19:31:39.544Z,55.04
2022-11-15T19:34:07.222Z,55.08
2022-11-15T19:36:38.400Z,55.09
2022-11-15T19:39:10.002Z,55.37
2022-11-15T19:41:38.767Z,55.32
2022-11-15T19:44:06.824Z,54.52
2022-11-15T19:46:34.562Z,54.48
2022-11-15T19:49:01.905Z,54.75
2022-11-15T19:51:30.931Z,54.83
2022-11-15T19:54:06.511Z,54.84
2022-11-15T19:56:35.043Z,55.17
2022-11-15T19:59:02.913Z,55.64
2022-11-15T20:01:32.975Z,55.17
2022-11-15T20:04:00.909Z,54.85
2022-11-15T20:06:30.512Z,54.67
2022-11-15T20:08:57.988Z,54.66
2022-11-15T20:11:26.005Z,54.55
2022-11-15T20:14:02.234Z,54.86
2022-11-15T20:16:30.102Z,54.64
2022-11-15T20:18:57.085Z,55.39
2022-11-15T20:21:24.195Z,55.15
2022-11-15T20:23:51.893Z,55.45
2022-11-15T20:26:20.197Z,55.36
2022-11-15T20:28:48.340Z,55.62
2022-11-15T20:31:16.418Z,55.38
2022-11-15T20:33:43.550Z,55.32
2022-11-15T20:36:13.467Z,55.30
2022-11-15T20:38:40.564Z,55.20
2022-11-15T20:41:07.714Z,55.67
2022-11-15T20:43:34.982Z,55.51
2022-11-15T20:46:01.923Z,55.25
2022-11-15T20:48:29.120Z,55.07
2022-11-15T20:51:11.468Z,55.38
2022-11-15T20:53:38.511Z,55.16
2022-11-15T20:56:10.401Z,55.20
2022-11-15T20:58:37.857Z,55.10
2022-11-15T21:01:06.372Z,54.98
2022-11-15T21:03:33.823Z,55.14
2022-11-15T21:06:01.017Z,55.47
2022-11-15T21:08:28.143Z,55.76
2022-11-15T21:11:13.713Z,55.86
2022-11-15T21:13:40.637Z,56.48
2022-11-15T21:16:08.155Z,56.95
2022-11-15T21:18:35.295Z,56.85
2022-11-15T21:21:04.800Z,57.33
2022-11-15T21:23:31.890Z,58.00
2022-11-15T21:25:59.123Z,58.35
2022-11-15T21:28:26.388Z,58.36
2022-11-15T21:30:57.665Z,57.73
2022-11-15T21:33:27.522Z,57.40
2022-11-15T21:35:55.643Z,57.03
2022-11-15T21:38:24.213Z,57.03
2022-11-15T21:40:54.303Z,57.37
2022-11-15T21:43:21.546Z,57.60
2022-11-15T21:46:06.452Z,57.86
2022-11-15T21:48:35.515Z,57.80
2022-11-15T21:51:05.550Z,57.36
2022-11-15T21:53:33.374Z,57.59
2022-11-15T21:56:01.652Z,57.43
2022-11-15T21:58:29.434Z,57.30
2022-11-15T22:01:15.181Z,57.23
2022-11-15T22:03:42.890Z,57.25
2022-11-15T22:06:16.089Z,57.15
2022-11-15T22:08:45.761Z,57.66
2022-11-15T22:11:12.848Z,57.44
2022-11-15T22:13:40.061Z,57.79
2022-11-15T22:16:07.902Z,57.79
2022-11-15T22:18:35.044Z,58.12
2022-11-15T22:21:04.794Z,57.96
2022-11-15T22:23:33.293Z,58.02
2022-11-15T22:26:00.636Z,57.85
2022-11-15T22:28:27.808Z,57.77
2022-11-15T22:30:55.491Z,57.68
2022-11-15T22:33:25.039Z,57.54
2022-11-15T22:35:52.698Z,57.81
2022-11-15T22:38:20.170Z,58.91
2022-11-15T22:40:47.701Z,59.05
2022-11-15T22:43:16.973Z,58.94
2022-11-15T22:45:52.209Z,58.49
2022-11-15T22:48:21.436Z,58.71
2022-11-15T22:50:48.671Z,58.69
2022-11-15T22:53:15.600Z,59.10
2022-11-15T22:55:42.839Z,59.61
2022-11-15T22:58:09.983Z,59.85
2022-11-15T23:00:37.148Z,59.77
2022-11-15T23:03:04.612Z,59.94
2022-11-15T23:05:32.112Z,59.87
2022-11-15T23:07:59.132Z,60.05
2022-11-15T23:10:44.431Z,59.84
2022-11-15T23:13:17.572Z,60.57
2022-11-15T23:16:23.442Z,60.55
2022-11-15T23:18:52.018Z,60.61
2022-11-15T23:21:46.108Z,60.27
2022-11-15T23:24:14.222Z,60.44
2022-11-15T23:26:42.265Z,60.75
2022-11-15T23:29:10.962Z,61.16
2022-11-15T23:32:01.968Z,61.19
2022-11-15T23:34:31.434Z,61.21
2022-11-15T23:36:59.689Z,61.18
2022-11-15T23:39:26.802Z,61.68
2022-11-15T23:41:54.059Z,61.53
2022-11-15T23:44:21.425Z,61.32
2022-11-15T23:46:48.491Z,61.72
2022-11-15T23:49:15.637Z,61.80
2022-11-15T23:51:42.749Z,62.28
2022-11-15T23:54:10.058Z,62.43
2022-11-15T23:56:37.305Z,61.75
2022-11-15T23:59:05.091Z,62.24
